createdAt,value
2022-12-15T00:00:30.190Z,15.56
2022-12-15T00:03:16.853Z,15.57
2022-12-15T00:06:03.426Z,15.60
2022-12-15T00:08:49.941Z,15.61
2022-12-15T00:11:36.905Z,15.64
2022-12-15T00:14:24.080Z,15.66
2022-12-15T00:17:10.682Z,15.70
2022-12-15T00:19:57.228Z,15.73
2022-12-15T00:22:44.151Z,15.78
2022-12-15T00:25:30.816Z,15.83
2022-12-15T00:28:17.330Z,15.88
2022-12-15T00:31:04.045Z,15.94
2022-12-15T00:33:50.522Z,15.99
2022-12-15T00:36:37.275Z,16.03
2022-12-15T00:39:06.529Z,16.08
2022-12-15T00:41:34.854Z,16.12
2022-12-15T00:44:03.236Z,16.17
2022-12-15T00:46:50.019Z,16.21
2022-12-15T00:49:36.504Z,16.23
2022-12-15T00:52:23.011Z,16.29
2022-12-15T00:55:09.595Z,16.34
2022-12-15T00:57:56.649Z,16.38
2022-12-15T01:00:43.125Z,16.48
2022-12-15T01:03:34.388Z,16.53
2022-12-15T01:06:29.495Z,16.58
2022-12-15T01:09:16.484Z,16.64
2022-12-15T01:12:03.803Z,16.70
2022-12-15T01:14:51.791Z,16.79
2022-12-15T01:17:38.711Z,16.82
2022-12-15T01:20:20.104Z,16.89
2022-12-15T01:22:54.703Z,16.95
2022-12-15T01:25:26.162Z,17.03
2022-12-15T01:27:55.136Z,17.10
2022-12-15T01:30:26.091Z,17.17
2022-12-15T01:32:54.883Z,17.24
2022-12-15T01:35:23.466Z,17.32
2022-12-15T01:37:51.774Z,17.38
2022-12-15T01:40:40.266Z,17.44
2022-12-15T01:43:21.794Z,17.52
2022-12-15T01:45:57.659Z,17.60
2022-12-15T01:48:31.752Z,17.68
2022-12-15T01:51:17.305Z,17.77
2022-12-15T01:54:04.952Z,17.84
2022-12-15T01:56:38.291Z,17.90
2022-12-15T01:59:12.597Z,18.00
2022-12-15T02:01:41.350Z,18.06
2022-12-15T02:04:10.368Z,18.13
2022-12-15T02:06:38.894Z,18.19
2022-12-15T02:09:07.368Z,18.27
2022-12-15T02:11:50.603Z,18.34
2022-12-15T02:14:45.654Z,18.42
2022-12-15T02:17:13.937Z,18.53
2022-12-15T02:20:00.346Z,18.63
2022-12-15T02:23:09.885Z,18.74
2022-12-15T02:26:12.749Z,18.87
2022-12-15T02:28:59.010Z,18.97
2022-12-15T02:31:51.603Z,19.06
2022-12-15T02:34:59.293Z,19.19
2022-12-15T02:37:39.269Z,19.30
2022-12-15T02:40:10.971Z,19.39
2022-12-15T02:42:46.914Z,19.49
2022-12-15T02:45:18.113Z,19.57
2022-12-15T02:47:55.195Z,19.65
2022-12-15T02:50:47.905Z,19.75
2022-12-15T02:53:48.801Z,19.87
2022-12-15T02:56:19.804Z,19.97
2022-12-15T02:58:59.363Z,20.06
2022-12-15T03:01:46.652Z,20.13
2022-12-15T03:04:15.242Z,20.22
2022-12-15T03:06:43.932Z,20.29
2022-12-15T03:09:12.289Z,20.38
2022-12-15T03:11:40.741Z,20.44
2022-12-15T03:14:09.086Z,20.52
2022-12-15T03:16:37.423Z,20.60
2022-12-15T03:19:05.756Z,20.68
2022-12-15T03:21:34.068Z,20.75
2022-12-15T03:24:02.376Z,20.83
2022-12-15T03:26:30.655Z,20.89
2022-12-15T03:28:58.973Z,20.98
2022-12-15T03:31:27.964Z,21.04
2022-12-15T03:33:59.214Z,21.12
2022-12-15T03:36:27.491Z,21.21
2022-12-15T03:38:55.775Z,21.28
2022-12-15T03:41:24.045Z,21.36
2022-12-15T03:43:52.331Z,21.44
2022-12-15T03:46:20.688Z,21.51
2022-12-15T03:48:49.019Z,21.57
2022-12-15T03:51:17.384Z,21.65
2022-12-15T03:53:45.688Z,21.76
2022-12-15T03:56:14.612Z,21.85
2022-12-15T03:58:42.926Z,21.93
2022-12-15T04:01:23.086Z,22.05
2022-12-15T04:03:55.511Z,22.14
2022-12-15T04:06:27.216Z,22.22
2022-12-15T04:08:55.514Z,22.30
2022-12-15T04:11:25.955Z,22.38
2022-12-15T04:13:54.287Z,22.44
2022-12-15T04:16:22.695Z,22.50
2022-12-15T04:19:10.963Z,22.57
2022-12-15T04:21:39.288Z,22.64
2022-12-15T04:24:26.162Z,22.71
2022-12-15T04:27:12.706Z,22.77
2022-12-15T04:29:59.301Z,22.81
2022-12-15T04:32:50.056Z,22.87
2022-12-15T04:35:37.168Z,22.93
2022-12-15T04:38:23.906Z,23.00
2022-12-15T04:41:10.598Z,23.05
2022-12-15T04:43:57.576Z,23.10
2022-12-15T04:46:44.116Z,23.16
2022-12-15T04:49:30.692Z,23.22
2022-12-15T04:52:17.775Z,23.27
2022-12-15T04:55:04.539Z,23.36
2022-12-15T04:57:51.165Z,23.44
2022-12-15T05:00:37.850Z,23.50
2022-12-15T05:03:27.163Z,23.53
2022-12-15T05:06:13.608Z,23.57
2022-12-15T05:09:00.264Z,23.60
2022-12-15T05:11:46.807Z,23.64
2022-12-15T05:14:33.506Z,23.67
2022-12-15T05:17:20.150Z,23.69
2022-12-15T05:20:06.804Z,23.73
2022-12-15T05:22:53.835Z,23.77
2022-12-15T05:25:40.977Z,23.80
2022-12-15T05:28:27.843Z,23.84
2022-12-15T05:31:14.400Z,23.88
2022-12-15T05:33:42.835Z,23.93
2022-12-15T05:36:11.386Z,23.98
2022-12-15T05:38:39.711Z,24.03
2022-12-15T05:41:08.353Z,24.08
2022-12-15T05:43:36.677Z,24.15
2022-12-15T05:46:06.102Z,24.20
2022-12-15T05:48:34.445Z,24.24
2022-12-15T05:51:08.434Z,24.28
2022-12-15T05:53:38.791Z,24.32
2022-12-15T05:56:10.490Z,24.35
2022-12-15T05:58:44.831Z,24.36
2022-12-15T06:01:18.677Z,24.38
2022-12-15T06:03:48.467Z,24.40
2022-12-15T06:06:16.801Z,24.41
2022-12-15T06:08:45.510Z,24.44
2022-12-15T06:11:20.834Z,24.47
2022-12-15T06:13:49.867Z,24.51
2022-12-15T06:16:22.790Z,24.55
2022-12-15T06:18:56.979Z,24.57
2022-12-15T06:21:33.550Z,24.59
2022-12-15T06:24:02.045Z,24.60
2022-12-15T06:26:36.826Z,24.62
2022-12-15T06:29:07.908Z,24.66
2022-12-15T06:31:37.551Z,24.69
2022-12-15T06:34:08.474Z,24.72
2022-12-15T06:36:37.616Z,24.76
2022-12-15T06:39:08.078Z,24.78
2022-12-15T06:41:36.671Z,24.83
2022-12-15T06:44:05.928Z,24.87
2022-12-15T06:46:35.974Z,24.88
2022-12-15T06:49:04.413Z,24.90
2022-12-15T06:51:33.669Z,24.92
2022-12-15T06:54:02.690Z,24.90
2022-12-15T06:56:34.929Z,24.92
2022-12-15T06:59:05.408Z,24.93
2022-12-15T07:01:34.344Z,24.96
2022-12-15T07:04:05.416Z,24.99
2022-12-15T07:06:37.641Z,25.01
2022-12-15T07:09:11.353Z,25.03
2022-12-15T07:11:39.747Z,25.04
2022-12-15T07:14:08.193Z,25.07
2022-12-15T07:16:36.657Z,25.10
2022-12-15T07:19:05.023Z,25.13
2022-12-15T07:21:33.846Z,25.15
2022-12-15T07:24:02.764Z,25.19
2022-12-15T07:26:31.504Z,25.19
2022-12-15T07:28:59.821Z,25.20
2022-12-15T07:31:28.235Z,25.20
2022-12-15T07:33:58.943Z,25.23
2022-12-15T07:36:28.629Z,25.24
2022-12-15T07:39:01.957Z,25.26
2022-12-15T07:41:31.099Z,25.27
2022-12-15T07:43:59.957Z,25.27
2022-12-15T07:46:29.936Z,25.29
2022-12-15T07:48:58.410Z,25.33
2022-12-15T07:51:26.819Z,25.35
2022-12-15T07:53:55.152Z,25.37
2022-12-15T07:56:23.465Z,25.39
2022-12-15T07:58:52.382Z,25.38
2022-12-15T08:01:20.922Z,25.39
2022-12-15T08:03:50.646Z,25.41
2022-12-15T08:06:19.025Z,25.43
2022-12-15T08:08:50.049Z,25.44
2022-12-15T08:11:19.903Z,25.46
2022-12-15T08:14:05.740Z,25.48
2022-12-15T08:16:37.434Z,25.48
2022-12-15T08:19:12.321Z,25.47
2022-12-15T08:21:41.994Z,25.48
2022-12-15T08:24:11.617Z,25.47
2022-12-15T08:26:41.542Z,25.46
2022-12-15T08:32:02.664Z,25.42
2022-12-15T08:34:31.110Z,25.41
2022-12-15T08:36:59.389Z,25.41
2022-12-15T08:39:27.962Z,25.43
2022-12-15T08:41:57.643Z,25.45
2022-12-15T08:44:25.950Z,25.44
2022-12-15T08:46:54.279Z,25.44
2022-12-15T08:49:22.701Z,25.44
2022-12-15T08:51:51.421Z,25.44
2022-12-15T08:54:20.472Z,25.42
2022-12-15T08:56:49.092Z,25.40
2022-12-15T08:59:17.881Z,25.38
2022-12-15T09:01:46.322Z,25.34
2022-12-15T09:04:14.881Z,25.30
2022-12-15T09:06:43.710Z,25.25
2022-12-15T09:09:15.099Z,25.21
2022-12-15T09:11:43.536Z,25.17
2022-12-15T09:14:11.842Z,25.11
2022-12-15T09:16:40.177Z,25.12
2022-12-15T09:19:09.290Z,25.12
2022-12-15T09:21:38.175Z,25.10
2022-12-15T09:24:06.877Z,25.07
2022-12-15T09:26:35.935Z,25.05
2022-12-15T09:29:04.489Z,24.99
2022-12-15T09:31:35.149Z,24.95
2022-12-15T09:34:03.880Z,24.89
2022-12-15T09:36:33.535Z,24.85
2022-12-15T09:39:05.166Z,24.81
2022-12-15T09:41:37.808Z,24.77
2022-12-15T09:44:16.078Z,24.71
2022-12-15T09:47:38.376Z,24.66
2022-12-15T09:50:13.624Z,24.58
2022-12-15T09:52:52.755Z,24.51
2022-12-15T09:55:33.640Z,24.44
2022-12-15T09:58:12.810Z,24.39
2022-12-15T10:00:57.984Z,24.31
2022-12-15T10:03:57.422Z,24.23
2022-12-15T10:06:51.451Z,24.18
2022-12-15T10:09:22.367Z,24.11
2022-12-15T10:11:57.926Z,24.06
2022-12-15T10:14:44.671Z,24.00
2022-12-15T10:17:27.977Z,23.91
2022-12-15T10:20:11.252Z,23.84
2022-12-15T10:22:39.970Z,23.74
2022-12-15T10:25:30.447Z,23.67
2022-12-15T10:28:51.073Z,23.55
2022-12-15T10:31:43.239Z,23.47
2022-12-15T10:34:33.185Z,23.38
2022-12-15T10:37:01.713Z,23.28
2022-12-15T10:39:44.592Z,23.21
2022-12-15T10:42:17.824Z,23.14
2022-12-15T10:44:50.661Z,23.07
2022-12-15T10:47:22.978Z,22.99
2022-12-15T10:49:52.160Z,22.90
2022-12-15T10:52:40.574Z,22.80
2022-12-15T10:55:38.063Z,22.70
2022-12-15T10:58:23.011Z,22.60
2022-12-15T11:01:09.267Z,22.51
2022-12-15T11:03:40.146Z,22.43
2022-12-15T11:06:23.734Z,22.35
2022-12-15T11:09:14.225Z,22.25
2022-12-15T11:12:11.986Z,22.14
2022-12-15T11:14:52.266Z,22.06
2022-12-15T11:17:25.034Z,21.99
2022-12-15T11:20:07.793Z,21.90
2022-12-15T11:22:54.332Z,21.82
2022-12-15T11:25:44.242Z,21.76
2022-12-15T11:28:49.701Z,21.67
2022-12-15T11:31:38.204Z,21.61
2022-12-15T11:34:18.356Z,21.56
2022-12-15T11:36:56.366Z,21.51
2022-12-15T11:39:36.529Z,21.46
2022-12-15T11:42:19.776Z,21.40
2022-12-15T11:45:24.714Z,21.34
2022-12-15T11:48:10.949Z,21.26
2022-12-15T11:51:03.707Z,21.20
2022-12-15T11:53:42.190Z,21.14
2022-12-15T11:56:10.521Z,21.09
2022-12-15T11:58:49.400Z,21.04
2022-12-15T12:01:37.696Z,20.97
2022-12-15T12:04:40.979Z,20.92
2022-12-15T12:07:19.581Z,20.88
2022-12-15T12:10:28.335Z,20.84
2022-12-15T12:13:02.381Z,20.80
2022-12-15T12:15:47.142Z,20.76
2022-12-15T12:18:32.646Z,20.71
2022-12-15T12:21:08.052Z,20.67
2022-12-15T12:23:40.649Z,20.65
2022-12-15T12:26:14.076Z,20.62
2022-12-15T12:28:53.186Z,20.58
2022-12-15T12:31:44.916Z,20.54
2022-12-15T12:34:44.694Z,20.49
2022-12-15T12:37:44.471Z,20.44
2022-12-15T12:40:43.231Z,20.41
2022-12-15T12:43:21.261Z,20.39
2022-12-15T12:46:08.204Z,20.36
2022-12-15T12:48:38.936Z,20.33
2022-12-15T12:51:34.736Z,20.31
2022-12-15T12:54:03.729Z,20.28
2022-12-15T12:56:40.862Z,20.26
2022-12-15T12:59:30.966Z,20.23
2022-12-15T13:02:22.572Z,20.20
2022-12-15T13:05:01.508Z,20.18
2022-12-15T13:07:36.128Z,20.14
2022-12-15T13:10:10.872Z,20.12
2022-12-15T13:13:02.398Z,20.10
2022-12-15T13:15:30.701Z,20.06
2022-12-15T13:18:24.750Z,20.03
2022-12-15T13:20:56.652Z,19.99
2022-12-15T13:23:25.018Z,19.95
2022-12-15T13:25:59.318Z,19.92
2022-12-15T13:28:36.345Z,19.88
2022-12-15T13:31:20.358Z,19.84
2022-12-15T13:33:52.026Z,19.79
2022-12-15T13:36:38.719Z,19.75
2022-12-15T13:39:29.874Z,19.71
2022-12-15T13:44:58.275Z,19.65
2022-12-15T13:47:30.932Z,19.64
2022-12-15T13:50:03.037Z,19.64
2022-12-15T13:55:42.696Z,19.57
2022-12-15T13:58:10.969Z,19.55
2022-12-15T14:00:40.741Z,19.52
2022-12-15T14:03:13.379Z,19.48
2022-12-15T14:05:44.077Z,19.46
2022-12-15T14:08:19.568Z,19.42
2022-12-15T14:10:54.908Z,19.39
2022-12-15T14:13:23.181Z,19.37
2022-12-15T14:16:01.808Z,19.35
2022-12-15T14:18:36.171Z,19.32
2022-12-15T14:21:19.287Z,19.29
2022-12-15T14:24:11.378Z,19.25
2022-12-15T14:26:36.158Z,19.22
2022-12-15T14:29:07.148Z,19.20
2022-12-15T14:31:38.984Z,19.18
2022-12-15T14:34:16.777Z,19.15
2022-12-15T14:36:46.951Z,19.13
2022-12-15T14:39:30.369Z,19.11
2022-12-15T14:42:02.260Z,19.11
2022-12-15T14:44:51.385Z,19.09
2022-12-15T14:47:28.508Z,19.07
2022-12-15T14:49:59.545Z,19.05
2022-12-15T14:52:36.939Z,19.03
2022-12-15T14:55:36.267Z,19.02
2022-12-15T14:58:36.984Z,19.00
2022-12-15T15:01:22.862Z,18.99
2022-12-15T15:04:05.342Z,18.98
2022-12-15T15:06:40.277Z,18.97
2022-12-15T15:09:26.918Z,18.96
2022-12-15T15:12:06.236Z,18.94
2022-12-15T15:14:39.058Z,18.92
2022-12-15T15:17:07.555Z,18.91
2022-12-15T15:19:40.544Z,18.90
2022-12-15T15:22:26.247Z,18.87
2022-12-15T15:24:54.650Z,18.87
2022-12-15T15:27:36.437Z,18.86
2022-12-15T15:30:24.870Z,18.83
2022-12-15T15:32:56.155Z,18.81
2022-12-15T15:35:27.410Z,18.78
2022-12-15T15:38:12.553Z,18.77
2022-12-15T15:40:40.839Z,18.75
2022-12-15T15:43:13.582Z,18.71
2022-12-15T15:45:43.183Z,18.67
2022-12-15T15:48:22.608Z,18.64
2022-12-15T15:50:51.117Z,18.63
2022-12-15T15:53:25.248Z,18.61
2022-12-15T15:55:56.879Z,18.59
2022-12-15T15:58:25.253Z,18.58
2022-12-15T16:00:54.456Z,18.57
2022-12-15T16:03:22.957Z,18.55
2022-12-15T16:05:51.382Z,18.54
2022-12-15T16:08:24.542Z,18.53
2022-12-15T16:10:53.547Z,18.52
2022-12-15T16:13:26.198Z,18.51
2022-12-15T16:15:56.035Z,18.49
2022-12-15T16:18:24.466Z,18.47
2022-12-15T16:20:54.891Z,18.43
2022-12-15T16:23:28.801Z,18.41
2022-12-15T16:25:59.756Z,18.39
2022-12-15T16:28:31.213Z,18.37
2022-12-15T16:31:00.302Z,18.34
2022-12-15T16:33:29.283Z,18.32
2022-12-15T16:35:59.937Z,18.31
2022-12-15T16:38:33.274Z,18.29
2022-12-15T16:41:09.385Z,18.29
2022-12-15T16:43:41.568Z,18.27
2022-12-15T16:46:15.722Z,18.26
2022-12-15T16:48:44.797Z,18.25
2022-12-15T16:51:36.225Z,18.22
2022-12-15T16:54:04.909Z,18.22
2022-12-15T16:56:33.665Z,18.21
2022-12-15T16:59:32.001Z,18.19
2022-12-15T17:01:50.605Z,18.17
2022-12-15T17:04:20.122Z,18.16
2022-12-15T17:06:48.758Z,18.13
2022-12-15T17:09:23.588Z,18.12
2022-12-15T17:11:52.850Z,18.09
2022-12-15T17:14:21.148Z,18.08
2022-12-15T17:16:49.558Z,18.06
2022-12-15T17:19:21.029Z,18.06
2022-12-15T17:21:53.915Z,18.06
2022-12-15T17:24:23.247Z,18.05
2022-12-15T17:26:52.149Z,18.05
2022-12-15T17:29:23.812Z,18.06
2022-12-15T17:31:52.762Z,18.04
2022-12-15T17:34:31.216Z,18.03
2022-12-15T17:37:02.246Z,18.02
2022-12-15T17:39:31.512Z,18.01
2022-12-15T17:42:01.391Z,17.99
2022-12-15T17:44:38.245Z,18.00
2022-12-15T17:47:09.385Z,17.97
2022-12-15T17:49:39.097Z,17.94
2022-12-15T17:52:35.337Z,17.94
2022-12-15T17:55:05.691Z,17.94
2022-12-15T17:57:34.157Z,17.92
2022-12-15T18:00:02.863Z,17.91
2022-12-15T18:02:31.702Z,17.88
2022-12-15T18:05:00.546Z,17.86
2022-12-15T18:07:28.921Z,17.85
2022-12-15T18:09:57.334Z,17.84
2022-12-15T18:12:27.868Z,17.83
2022-12-15T18:14:57.810Z,17.81
2022-12-15T18:17:26.144Z,17.80
2022-12-15T18:19:54.488Z,17.78
2022-12-15T18:22:25.439Z,17.75
2022-12-15T18:24:55.365Z,17.73
2022-12-15T18:27:28.399Z,17.73
2022-12-15T18:30:00.623Z,17.70
2022-12-15T18:32:30.819Z,17.68
2022-12-15T18:34:59.335Z,17.68
2022-12-15T18:37:29.057Z,17.66
2022-12-15T18:40:03.975Z,17.64
2022-12-15T18:42:33.263Z,17.65
2022-12-15T18:45:03.214Z,17.62
2022-12-15T18:47:31.686Z,17.60
2022-12-15T18:49:59.987Z,17.60
2022-12-15T18:52:34.295Z,17.59
2022-12-15T18:55:03.148Z,17.60
2022-12-15T18:57:34.688Z,17.63
2022-12-15T19:00:15.336Z,17.64
2022-12-15T19:02:44.242Z,17.65
2022-12-15T19:05:28.314Z,17.64
2022-12-15T19:08:12.352Z,17.63
2022-12-15T19:10:53.239Z,17.64
2022-12-15T19:13:24.307Z,17.63
2022-12-15T19:15:54.368Z,17.61
2022-12-15T19:18:42.999Z,17.61
2022-12-15T19:21:42.350Z,17.58
2022-12-15T19:24:45.892Z,17.55
2022-12-15T19:27:17.098Z,17.54
2022-12-15T19:29:46.092Z,17.51
2022-12-15T19:32:14.789Z,17.50
2022-12-15T19:34:43.277Z,17.49
2022-12-15T19:37:29.210Z,17.47
2022-12-15T19:40:00.107Z,17.47
2022-12-15T19:42:38.014Z,17.46
2022-12-15T19:45:24.426Z,17.44
2022-12-15T19:47:52.911Z,17.44
2022-12-15T19:50:26.833Z,17.41
2022-12-15T19:53:03.131Z,17.40
2022-12-15T19:55:34.969Z,17.37
2022-12-15T19:58:27.418Z,17.36
2022-12-15T20:00:59.208Z,17.35
2022-12-15T20:03:30.004Z,17.33
2022-12-15T20:06:00.283Z,17.33
2022-12-15T20:08:34.604Z,17.32
2022-12-15T20:11:03.079Z,17.31
2022-12-15T20:13:32.146Z,17.32
2022-12-15T20:16:00.777Z,17.30
2022-12-15T20:18:29.329Z,17.29
2022-12-15T20:20:57.956Z,17.28
2022-12-15T20:23:29.975Z,17.26
2022-12-15T20:25:59.217Z,17.25
2022-12-15T20:28:29.953Z,17.24
2022-12-15T20:30:59.214Z,17.23
2022-12-15T20:33:27.592Z,17.23
2022-12-15T20:35:55.883Z,17.21
2022-12-15T20:38:35.741Z,17.21
2022-12-15T20:41:04.904Z,17.21
2022-12-15T20:43:35.574Z,17.21
2022-12-15T20:46:06.891Z,17.22
2022-12-15T20:48:37.603Z,17.21
2022-12-15T20:51:10.004Z,17.21
2022-12-15T20:53:39.916Z,17.19
2022-12-15T20:56:09.054Z,17.18
2022-12-15T20:58:40.856Z,17.17
2022-12-15T21:01:25.045Z,17.16
2022-12-15T21:03:56.720Z,17.15
2022-12-15T21:06:27.405Z,17.12
2022-12-15T21:08:56.557Z,17.10
2022-12-15T21:11:28.380Z,17.09
2022-12-15T21:13:59.782Z,17.08
2022-12-15T21:16:30.728Z,17.07
2022-12-15T21:21:52.259Z,17.04
2022-12-15T21:24:26.571Z,17.02
2022-12-15T21:26:55.216Z,17.02
2022-12-15T21:29:26.410Z,17.00
2022-12-15T21:31:54.761Z,16.99
2022-12-15T21:34:23.114Z,16.97
2022-12-15T21:36:55.028Z,16.97
2022-12-15T21:39:37.884Z,16.97
2022-12-15T21:42:13.187Z,16.95
2022-12-15T21:44:42.539Z,16.93
2022-12-15T21:47:51.923Z,16.94
2022-12-15T21:50:21.093Z,16.93
2022-12-15T21:52:49.959Z,16.93
2022-12-15T21:55:22.302Z,16.93
2022-12-15T21:57:51.678Z,16.91
2022-12-15T22:00:20.730Z,16.89
2022-12-15T22:02:50.956Z,16.88
2022-12-15T22:05:31.505Z,16.85
2022-12-15T22:08:12.049Z,16.83
2022-12-15T22:10:40.677Z,16.82
2022-12-15T22:13:17.530Z,16.81
2022-12-15T22:15:46.240Z,16.78
2022-12-15T22:18:20.572Z,16.77
2022-12-15T22:20:50.837Z,16.77
2022-12-15T22:23:20.509Z,16.75
2022-12-15T22:25:52.429Z,16.73
2022-12-15T22:28:26.499Z,16.72
2022-12-15T22:30:57.129Z,16.71
2022-12-15T22:33:27.297Z,16.71
2022-12-15T22:35:57.079Z,16.68
2022-12-15T22:38:25.986Z,16.68
2022-12-15T22:40:58.474Z,16.65
2022-12-15T22:43:32.986Z,16.65
2022-12-15T22:46:01.942Z,16.64
2022-12-15T22:48:35.144Z,16.64
2022-12-15T22:51:05.236Z,16.63
2022-12-15T22:53:36.716Z,16.64
2022-12-15T22:56:08.760Z,16.63
2022-12-15T22:58:44.103Z,16.63
2022-12-15T23:01:13.190Z,16.62
2022-12-15T23:03:41.545Z,16.62
2022-12-15T23:06:09.959Z,16.62
2022-12-15T23:08:38.265Z,16.61
2022-12-15T23:11:25.048Z,16.60
2022-12-15T23:13:53.333Z,16.60
2022-12-15T23:16:23.324Z,16.59
2022-12-15T23:18:56.535Z,16.59
2022-12-15T23:21:25.879Z,16.59
2022-12-15T23:23:54.245Z,16.57
2022-12-15T23:26:24.717Z,16.56
2022-12-15T23:28:55.260Z,16.56
2022-12-15T23:31:24.101Z,16.55
2022-12-15T23:33:52.455Z,16.53
2022-12-15T23:36:21.062Z,16.52
2022-12-15T23:38:49.453Z,16.50
2022-12-15T23:41:19.477Z,16.50
2022-12-15T23:43:48.050Z,16.50
2022-12-15T23:46:16.463Z,16.50
2022-12-15T23:48:45.663Z,16.50
2022-12-15T23:51:19.353Z,16.52
2022-12-15T23:53:48.946Z,16.54
2022-12-15T23:56:19.998Z,16.56
2022-12-15T23:58:50.107Z,16.57
